Terminal Aerodrome Forecast
Issued by NWS

Home | Current Version | Previous Version | Text Only | Print | Product List | Glossary On
Versions: 1 2 3 4 5 6 7 8 9 10 11 12 13 14 15 16 17 18 19 20
000
FTUS45 KRIW 042300
TAFCPR
TAF
KCPR 042327Z 0500/0524 VRB10G20KT P6SM VCTS SCT050CB BKN100
     FM050200 10011KT P6SM VCSH SCT025 BKN080
     FM051000 32010KT P6SM SCT008 OVC035
     FM051600 10007KT P6SM SCT035
     FM052000 11011KT P6SM VCSH BKN060 BKN200=

USA.gov is the U.S. government's official web portal to all federal, state and local government web resources and services.